sensor_id;sensor_type;location;lat;lon;timestamp;pressure;altitude;pressure_sealevel;temperature;humidity
33697;BME280;20031;43.416;23.232;2022-12-18T00:00:28;100988.75;;;6.68;89.17
33697;BME280;20031;43.416;23.232;2022-12-18T00:02:55;100988.75;;;6.68;89.07
33697;BME280;20031;43.416;23.232;2022-12-18T00:05:20;100992.16;;;6.68;89.12
33697;BME280;20031;43.416;23.232;2022-12-18T00:07:46;100999.94;;;6.68;89.17
33697;BME280;20031;43.416;23.232;2022-12-18T00:10:11;101020.75;;;6.67;89.56
33697;BME280;20031;43.416;23.232;2022-12-18T00:12:37;101008.66;;;6.67;89.85
33697;BME280;20031;43.416;23.232;2022-12-18T00:15:02;101017.44;;;6.65;89.45
33697;BME280;20031;43.416;23.232;2022-12-18T00:17:28;101023.56;;;6.64;89.32
33697;BME280;20031;43.416;23.232;2022-12-18T00:19:53;101031.44;;;6.62;89.46
33697;BME280;20031;43.416;23.232;2022-12-18T00:22:19;101036.81;;;6.59;89.76
33697;BME280;20031;43.416;23.232;2022-12-18T00:24:44;101048.22;;;6.57;90.08
33697;BME280;20031;43.416;23.232;2022-12-18T00:27:09;101049.16;;;6.56;90.17
33697;BME280;20031;43.416;23.232;2022-12-18T00:29:35;101054.47;;;6.55;89.81
33697;BME280;20031;43.416;23.232;2022-12-18T00:32:00;101055.28;;;6.55;90.48
33697;BME280;20031;43.416;23.232;2022-12-18T00:34:26;101059.63;;;6.55;90.08
33697;BME280;20031;43.416;23.232;2022-12-18T00:36:51;101069.03;;;6.56;90.70
33697;BME280;20031;43.416;23.232;2022-12-18T00:39:16;101061.25;;;6.56;90.53
33697;BME280;20031;43.416;23.232;2022-12-18T00:41:42;101068.09;;;6.57;90.38
33697;BME280;20031;43.416;23.232;2022-12-18T00:44:26;101066.44;;;6.56;90.33
33697;BME280;20031;43.416;23.232;2022-12-18T00:46:51;101077.75;;;6.55;90.33
33697;BME280;20031;43.416;23.232;2022-12-18T00:49:18;101073.50;;;6.54;90.47
33697;BME280;20031;43.416;23.232;2022-12-18T00:51:44;101070.91;;;6.54;90.56
33697;BME280;20031;43.416;23.232;2022-12-18T00:54:10;101072.69;;;6.53;90.72
33697;BME280;20031;43.416;23.232;2022-12-18T00:56:37;101072.69;;;6.53;91.21
33697;BME280;20031;43.416;23.232;2022-12-18T00:59:03;101083.84;;;6.54;90.59
33697;BME280;20031;43.416;23.232;2022-12-18T01:01:28;101080.56;;;6.52;91.19
33697;BME280;20031;43.416;23.232;2022-12-18T01:03:54;101096.06;;;6.52;91.04
33697;BME280;20031;43.416;23.232;2022-12-18T01:06:19;101088.41;;;6.50;90.97
33697;BME280;20031;43.416;23.232;2022-12-18T01:08:45;101089.16;;;6.40;91.17
33697;BME280;20031;43.416;23.232;2022-12-18T01:11:18;101100.75;;;6.34;91.52
33697;BME280;20031;43.416;23.232;2022-12-18T01:13:44;101104.41;;;6.32;91.20
33697;BME280;20031;43.416;23.232;2022-12-18T01:16:15;101108.13;;;6.28;91.48
33697;BME280;20031;43.416;23.232;2022-12-18T01:18:41;101107.59;;;6.23;91.25
33697;BME280;20031;43.416;23.232;2022-12-18T01:21:09;101102.75;;;6.18;90.75
33697;BME280;20031;43.416;23.232;2022-12-18T01:23:34;101105.31;;;6.18;90.60
33697;BME280;20031;43.416;23.232;2022-12-18T01:26:11;101107.09;;;6.18;90.79
33697;BME280;20031;43.416;23.232;2022-12-18T01:28:37;101101.09;;;6.17;90.74
33697;BME280;20031;43.416;23.232;2022-12-18T01:31:16;101109.56;;;6.19;90.59
33697;BME280;20031;43.416;23.232;2022-12-18T01:33:43;101111.25;;;6.20;89.94
33697;BME280;20031;43.416;23.232;2022-12-18T01:36:14;101111.13;;;6.22;90.18
33697;BME280;20031;43.416;23.232;2022-12-18T01:38:40;101103.28;;;6.23;90.05
33697;BME280;20031;43.416;23.232;2022-12-18T01:41:06;101117.00;;;6.24;90.00
33697;BME280;20031;43.416;23.232;2022-12-18T01:43:55;101111.84;;;6.24;90.04
33697;BME280;20031;43.416;23.232;2022-12-18T01:46:23;101118.91;;;6.22;89.52
33697;BME280;20031;43.416;23.232;2022-12-18T01:48:53;101114.75;;;6.19;89.53
33697;BME280;20031;43.416;23.232;2022-12-18T01:51:20;101125.09;;;6.19;89.99
33697;BME280;20031;43.416;23.232;2022-12-18T01:53:46;101120.84;;;6.18;89.77
33697;BME280;20031;43.416;23.232;2022-12-18T01:56:15;101125.19;;;6.18;89.54
33697;BME280;20031;43.416;23.232;2022-12-18T01:59:12;101127.03;;;6.16;89.27
33697;BME280;20031;43.416;23.232;2022-12-18T02:01:37;101121.06;;;6.15;89.39
33697;BME280;20031;43.416;23.232;2022-12-18T02:04:26;101129.63;;;6.16;89.15
33697;BME280;20031;43.416;23.232;2022-12-18T02:07:03;101136.47;;;6.17;89.53
33697;BME280;20031;43.416;23.232;2022-12-18T02:09:36;101139.97;;;6.16;89.11
33697;BME280;20031;43.416;23.232;2022-12-18T02:12:24;101146.09;;;6.15;89.42
33697;BME280;20031;43.416;23.232;2022-12-18T02:17:43;101148.16;;;6.10;89.12
33697;BME280;20031;43.416;23.232;2022-12-18T02:20:24;101149.94;;;6.09;89.39
33697;BME280;20031;43.416;23.232;2022-12-18T02:23:20;101157.78;;;6.08;89.32
33697;BME280;20031;43.416;23.232;2022-12-18T02:28:26;101162.44;;;6.03;89.29
33697;BME280;20031;43.416;23.232;2022-12-18T02:30:56;101167.59;;;6.03;89.50
33697;BME280;20031;43.416;23.232;2022-12-18T02:33:25;101165.22;;;6.00;89.34
33697;BME280;20031;43.416;23.232;2022-12-18T02:35:52;101172.16;;;6.00;88.89
33697;BME280;20031;43.416;23.232;2022-12-18T02:38:19;101171.41;;;5.98;88.64
33697;BME280;20031;43.416;23.232;2022-12-18T02:40:45;101173.19;;;5.97;88.81
33697;BME280;20031;43.416;23.232;2022-12-18T02:43:15;101171.50;;;5.96;89.19
33697;BME280;20031;43.416;23.232;2022-12-18T02:45:52;101179.09;;;5.99;88.54
33697;BME280;20031;43.416;23.232;2022-12-18T02:48:22;101167.09;;;5.98;88.70
33697;BME280;20031;43.416;23.232;2022-12-18T02:53:45;101175.25;;;5.92;88.23
33697;BME280;20031;43.416;23.232;2022-12-18T02:56:20;101179.88;;;5.87;87.97
33697;BME280;20031;43.416;23.232;2022-12-18T02:58:55;101185.47;;;5.81;87.62
33697;BME280;20031;43.416;23.232;2022-12-18T03:01:24;101187.50;;;5.76;87.86
33697;BME280;20031;43.416;23.232;2022-12-18T03:04:01;101182.50;;;5.73;87.51
33697;BME280;20031;43.416;23.232;2022-12-18T03:06:32;101191.41;;;5.69;86.84
33697;BME280;20031;43.416;23.232;2022-12-18T03:09:09;101189.97;;;5.65;86.95
33697;BME280;20031;43.416;23.232;2022-12-18T03:11:39;101191.59;;;5.66;86.44
33697;BME280;20031;43.416;23.232;2022-12-18T03:14:25;101202.03;;;5.65;86.07
33697;BME280;20031;43.416;23.232;2022-12-18T03:16:54;101205.56;;;5.64;86.28
33697;BME280;20031;43.416;23.232;2022-12-18T03:19:27;101208.16;;;5.64;85.66
33697;BME280;20031;43.416;23.232;2022-12-18T03:21:56;101208.16;;;5.64;85.97
33697;BME280;20031;43.416;23.232;2022-12-18T03:24:23;101227.06;;;5.64;85.95
33697;BME280;20031;43.416;23.232;2022-12-18T03:26:53;101224.47;;;5.64;86.01
33697;BME280;20031;43.416;23.232;2022-12-18T03:29:27;101226.84;;;5.67;86.13
33697;BME280;20031;43.416;23.232;2022-12-18T03:32:03;101226.75;;;5.69;86.02
33697;BME280;20031;43.416;23.232;2022-12-18T03:34:33;101221.59;;;5.69;85.84
33697;BME280;20031;43.416;23.232;2022-12-18T03:37:01;101229.34;;;5.69;85.43
33697;BME280;20031;43.416;23.232;2022-12-18T03:39:26;101237.19;;;5.67;85.76
33697;BME280;20031;43.416;23.232;2022-12-18T03:42:05;101237.19;;;5.67;85.84
33697;BME280;20031;43.416;23.232;2022-12-18T03:52:36;101247.63;;;5.66;85.29
33697;BME280;20031;43.416;23.232;2022-12-18T03:55:05;101242.25;;;5.69;85.41
33697;BME280;20031;43.416;23.232;2022-12-18T03:57:32;101250.84;;;5.69;85.20
33697;BME280;20031;43.416;23.232;2022-12-18T04:00:13;101241.22;;;5.71;85.09
33697;BME280;20031;43.416;23.232;2022-12-18T04:02:43;101243.72;;;5.73;85.54
33697;BME280;20031;43.416;23.232;2022-12-18T04:05:10;101238.38;;;5.76;85.09
33697;BME280;20031;43.416;23.232;2022-12-18T04:07:38;101237.56;;;5.75;85.20
33697;BME280;20031;43.416;23.232;2022-12-18T04:10:06;101249.72;;;5.73;85.11
33697;BME280;20031;43.416;23.232;2022-12-18T04:12:32;101259.53;;;5.68;85.53
33697;BME280;20031;43.416;23.232;2022-12-18T04:14:57;101243.47;;;5.63;85.55
33697;BME280;20031;43.416;23.232;2022-12-18T04:17:23;101256.59;;;5.60;85.27
33697;BME280;20031;43.416;23.232;2022-12-18T04:19:49;101269.72;;;5.57;85.78
33697;BME280;20031;43.416;23.232;2022-12-18T04:22:14;101265.56;;;5.55;85.68
33697;BME280;20031;43.416;23.232;2022-12-18T04:24:40;101282.09;;;5.53;85.25
33697;BME280;20031;43.416;23.232;2022-12-18T04:27:05;101278.03;;;5.49;86.03
33697;BME280;20031;43.416;23.232;2022-12-18T04:29:31;101275.56;;;5.47;86.03
33697;BME280;20031;43.416;23.232;2022-12-18T04:31:56;101277.50;;;5.44;86.14
33697;BME280;20031;43.416;23.232;2022-12-18T04:34:22;101281.84;;;5.43;86.29
33697;BME280;20031;43.416;23.232;2022-12-18T04:36:47;101280.28;;;5.41;85.80
33697;BME280;20031;43.416;23.232;2022-12-18T04:39:14;101276.06;;;5.40;86.43
33697;BME280;20031;43.416;23.232;2022-12-18T04:41:39;101279.56;;;5.39;86.32
33697;BME280;20031;43.416;23.232;2022-12-18T04:44:05;101287.41;;;5.37;86.36
33697;BME280;20031;43.416;23.232;2022-12-18T04:46:30;101289.13;;;5.37;86.58
33697;BME280;20031;43.416;23.232;2022-12-18T04:48:56;101295.16;;;5.37;86.70
33697;BME280;20031;43.416;23.232;2022-12-18T04:51:21;101305.38;;;5.39;87.06
33697;BME280;20031;43.416;23.232;2022-12-18T04:53:47;101297.63;;;5.39;87.08
33697;BME280;20031;43.416;23.232;2022-12-18T04:56:14;101300.22;;;5.39;87.38
33697;BME280;20031;43.416;23.232;2022-12-18T04:58:42;101309.53;;;5.41;87.08
33697;BME280;20031;43.416;23.232;2022-12-18T05:01:08;101314.59;;;5.43;87.32
33697;BME280;20031;43.416;23.232;2022-12-18T05:03:34;101312.84;;;5.43;87.41
33697;BME280;20031;43.416;23.232;2022-12-18T05:06:00;101323.06;;;5.45;87.46
33697;BME280;20031;43.416;23.232;2022-12-18T05:08:26;101325.56;;;5.46;87.74
33697;BME280;20031;43.416;23.232;2022-12-18T05:11:09;101324.94;;;5.43;87.42
33697;BME280;20031;43.416;23.232;2022-12-18T05:13:36;101321.50;;;5.42;87.35
33697;BME280;20031;43.416;23.232;2022-12-18T05:16:02;101321.59;;;5.41;87.56
33697;BME280;20031;43.416;23.232;2022-12-18T05:18:27;101327.59;;;5.41;87.93
33697;BME280;20031;43.416;23.232;2022-12-18T05:20:54;101329.16;;;5.44;87.67
33697;BME280;20031;43.416;23.232;2022-12-18T05:23:21;101337.75;;;5.44;87.68
33697;BME280;20031;43.416;23.232;2022-12-18T05:25:59;101338.66;;;5.43;87.77
33697;BME280;20031;43.416;23.232;2022-12-18T05:28:27;101345.50;;;5.44;88.18
33697;BME280;20031;43.416;23.232;2022-12-18T05:30:56;101346.31;;;5.45;88.05
33697;BME280;20031;43.416;23.232;2022-12-18T05:33:23;101345.41;;;5.46;87.91
33697;BME280;20031;43.416;23.232;2022-12-18T05:35:54;101355.53;;;5.49;88.04
33697;BME280;20031;43.416;23.232;2022-12-18T05:38:20;101358.94;;;5.49;88.12
33697;BME280;20031;43.416;23.232;2022-12-18T05:40:47;101369.19;;;5.51;88.08
33697;BME280;20031;43.416;23.232;2022-12-18T05:43:12;101364.78;;;5.53;88.22
33697;BME280;20031;43.416;23.232;2022-12-18T05:45:38;101367.25;;;5.54;88.85
33697;BME280;20031;43.416;23.232;2022-12-18T05:48:04;101378.41;;;5.55;88.97
33697;BME280;20031;43.416;23.232;2022-12-18T05:50:30;101376.75;;;5.54;88.82
33697;BME280;20031;43.416;23.232;2022-12-18T05:52:55;101378.41;;;5.55;88.58
33697;BME280;20031;43.416;23.232;2022-12-18T05:55:21;101376.63;;;5.55;89.17
33697;BME280;20031;43.416;23.232;2022-12-18T05:57:46;101379.31;;;5.54;89.39
33697;BME280;20031;43.416;23.232;2022-12-18T06:00:12;101387.06;;;5.54;89.24
33697;BME280;20031;43.416;23.232;2022-12-18T06:02:38;101385.25;;;5.56;89.16
33697;BME280;20031;43.416;23.232;2022-12-18T06:05:03;101391.22;;;5.56;89.52
33697;BME280;20031;43.416;23.232;2022-12-18T06:07:29;101388.75;;;5.55;89.41
33697;BME280;20031;43.416;23.232;2022-12-18T06:09:54;101396.31;;;5.57;89.08
33697;BME280;20031;43.416;23.232;2022-12-18T06:12:20;101402.22;;;5.59;89.30
33697;BME280;20031;43.416;23.232;2022-12-18T06:14:46;101402.03;;;5.62;89.97
33697;BME280;20031;43.416;23.232;2022-12-18T06:17:11;101403.66;;;5.63;89.09
33697;BME280;20031;43.416;23.232;2022-12-18T06:19:37;101400.81;;;5.68;89.94
33697;BME280;20031;43.416;23.232;2022-12-18T06:22:02;101408.47;;;5.69;89.51
33697;BME280;20031;43.416;23.232;2022-12-18T06:24:28;101403.13;;;5.72;89.71
33697;BME280;20031;43.416;23.232;2022-12-18T06:26:53;101408.19;;;5.74;89.81
33697;BME280;20031;43.416;23.232;2022-12-18T06:29:18;101401.28;;;5.74;89.76
33697;BME280;20031;43.416;23.232;2022-12-18T06:31:44;101413.09;;;5.78;90.24
33697;BME280;20031;43.416;23.232;2022-12-18T06:34:10;101412.91;;;5.81;90.14
33697;BME280;20031;43.416;23.232;2022-12-18T06:36:35;101417.25;;;5.81;90.51
33697;BME280;20031;43.416;23.232;2022-12-18T06:39:01;101426.66;;;5.82;90.08
33697;BME280;20031;43.416;23.232;2022-12-18T06:41:26;101420.47;;;5.84;90.51
33697;BME280;20031;43.416;23.232;2022-12-18T06:43:52;101425.53;;;5.86;90.94
33697;BME280;20031;43.416;23.232;2022-12-18T06:46:17;101433.00;;;5.90;90.69
33697;BME280;20031;43.416;23.232;2022-12-18T06:48:46;101426.81;;;5.93;90.78
33697;BME280;20031;43.416;23.232;2022-12-18T06:51:15;101433.47;;;5.97;90.69
33697;BME280;20031;43.416;23.232;2022-12-18T06:53:41;101431.50;;;6.00;90.57
33697;BME280;20031;43.416;23.232;2022-12-18T06:56:07;101441.75;;;6.02;90.54
33697;BME280;20031;43.416;23.232;2022-12-18T06:58:32;101457.91;;;6.05;90.47
33697;BME280;20031;43.416;23.232;2022-12-18T07:01:02;101458.63;;;6.07;90.74
33697;BME280;20031;43.416;23.232;2022-12-18T07:03:28;101455.84;;;6.10;90.71
33697;BME280;20031;43.416;23.232;2022-12-18T07:05:54;101464.38;;;6.12;91.16
33697;BME280;20031;43.416;23.232;2022-12-18T07:08:19;101463.22;;;6.16;90.97
33697;BME280;20031;43.416;23.232;2022-12-18T07:10:45;101463.78;;;6.21;90.88
33697;BME280;20031;43.416;23.232;2022-12-18T07:13:10;101466.28;;;6.22;91.05
33697;BME280;20031;43.416;23.232;2022-12-18T07:15:35;101470.34;;;6.26;91.14
33697;BME280;20031;43.416;23.232;2022-12-18T07:18:01;101477.69;;;6.32;91.26
33697;BME280;20031;43.416;23.232;2022-12-18T07:20:26;101476.78;;;6.33;90.95
33697;BME280;20031;43.416;23.232;2022-12-18T07:22:52;101478.97;;;6.39;90.77
33697;BME280;20031;43.416;23.232;2022-12-18T07:25:17;101476.09;;;6.44;91.34
33697;BME280;20031;43.416;23.232;2022-12-18T07:27:44;101484.31;;;6.50;90.98
33697;BME280;20031;43.416;23.232;2022-12-18T07:30:10;101475.38;;;6.54;91.08
33697;BME280;20031;43.416;23.232;2022-12-18T07:32:35;101476.66;;;6.61;91.23
33697;BME280;20031;43.416;23.232;2022-12-18T07:35:01;101480.50;;;6.68;90.78
33697;BME280;20031;43.416;23.232;2022-12-18T07:37:26;101487.16;;;6.72;90.38
33697;BME280;20031;43.416;23.232;2022-12-18T07:39:51;101486.97;;;6.75;90.72
33697;BME280;20031;43.416;23.232;2022-12-18T07:42:17;101482.22;;;6.81;90.74
33697;BME280;20031;43.416;23.232;2022-12-18T07:45:01;101488.56;;;6.90;90.54
33697;BME280;20031;43.416;23.232;2022-12-18T07:47:27;101491.75;;;6.93;90.78
33697;BME280;20031;43.416;23.232;2022-12-18T07:49:53;101492.28;;;6.98;90.53
33697;BME280;20031;43.416;23.232;2022-12-18T07:52:18;101492.00;;;7.03;90.35
33697;BME280;20031;43.416;23.232;2022-12-18T07:54:44;101489.09;;;7.07;90.18
33697;BME280;20031;43.416;23.232;2022-12-18T07:57:10;101493.22;;;7.09;90.09
33697;BME280;20031;43.416;23.232;2022-12-18T07:59:35;101501.75;;;7.11;89.92
33697;BME280;20031;43.416;23.232;2022-12-18T08:02:01;101497.94;;;7.17;89.60
33697;BME280;20031;43.416;23.232;2022-12-18T08:04:26;101502.59;;;7.24;89.54
33697;BME280;20031;43.416;23.232;2022-12-18T08:06:52;101514.22;;;7.31;89.72
33697;BME280;20031;43.416;23.232;2022-12-18T08:09:18;101516.47;;;7.36;89.71
33697;BME280;20031;43.416;23.232;2022-12-18T08:11:44;101518.97;;;7.37;89.17
33697;BME280;20031;43.416;23.232;2022-12-18T08:14:09;101535.97;;;7.41;88.88
33697;BME280;20031;43.416;23.232;2022-12-18T08:16:35;101527.06;;;7.45;88.79
33697;BME280;20031;43.416;23.232;2022-12-18T08:19:01;101532.06;;;7.48;88.85
33697;BME280;20031;43.416;23.232;2022-12-18T08:21:29;101533.41;;;7.54;88.53
33697;BME280;20031;43.416;23.232;2022-12-18T08:23:56;101529.47;;;7.61;88.83
33697;BME280;20031;43.416;23.232;2022-12-18T08:26:23;101527.97;;;7.69;88.59
33697;BME280;20031;43.416;23.232;2022-12-18T08:28:50;101539.72;;;7.74;88.03
33697;BME280;20031;43.416;23.232;2022-12-18T08:31:15;101533.06;;;7.83;88.15
33697;BME280;20031;43.416;23.232;2022-12-18T08:33:41;101525.19;;;7.84;87.22
33697;BME280;20031;43.416;23.232;2022-12-18T08:36:08;101528.31;;;7.89;87.22
33697;BME280;20031;43.416;23.232;2022-12-18T08:38:35;101527.75;;;7.97;86.41
33697;BME280;20031;43.416;23.232;2022-12-18T08:41:00;101529.09;;;8.02;86.11
33697;BME280;20031;43.416;23.232;2022-12-18T08:43:27;101538.84;;;8.11;84.95
33697;BME280;20031;43.416;23.232;2022-12-18T08:46:11;101541.78;;;8.19;84.84
33697;BME280;20031;43.416;23.232;2022-12-18T08:48:37;101534.78;;;8.32;83.76
33697;BME280;20031;43.416;23.232;2022-12-18T08:51:02;101530.03;;;8.49;82.98
33697;BME280;20031;43.416;23.232;2022-12-18T08:53:28;101533.63;;;8.59;81.81
33697;BME280;20031;43.416;23.232;2022-12-18T08:55:55;101529.00;;;8.75;81.73
33697;BME280;20031;43.416;23.232;2022-12-18T08:58:21;101525.88;;;8.82;80.48
33697;BME280;20031;43.416;23.232;2022-12-18T09:00:46;101529.41;;;8.92;79.71
33697;BME280;20031;43.416;23.232;2022-12-18T09:03:13;101528.53;;;9.04;78.30
33697;BME280;20031;43.416;23.232;2022-12-18T09:05:39;101532.47;;;9.20;76.15
33697;BME280;20031;43.416;23.232;2022-12-18T09:08:04;101538.38;;;9.57;74.70
33697;BME280;20031;43.416;23.232;2022-12-18T09:10:30;101528.13;;;10.10;72.35
33697;BME280;20031;43.416;23.232;2022-12-18T09:12:55;101532.25;;;9.90;67.01
33697;BME280;20031;43.416;23.232;2022-12-18T09:15:21;101532.13;;;9.59;65.10
33697;BME280;20031;43.416;23.232;2022-12-18T09:17:47;101530.59;;;9.67;65.31
33697;BME280;20031;43.416;23.232;2022-12-18T09:20:13;101523.72;;;9.88;64.52
33697;BME280;20031;43.416;23.232;2022-12-18T09:22:39;101527.75;;;9.92;63.81
33697;BME280;20031;43.416;23.232;2022-12-18T09:25:04;101516.88;;;9.98;63.00
33697;BME280;20031;43.416;23.232;2022-12-18T09:27:33;101523.03;;;10.08;62.40
33697;BME280;20031;43.416;23.232;2022-12-18T09:29:58;101521.53;;;10.06;60.78
33697;BME280;20031;43.416;23.232;2022-12-18T09:32:24;101522.94;;;9.99;59.20
33697;BME280;20031;43.416;23.232;2022-12-18T09:34:49;101522.22;;;9.97;57.74
33697;BME280;20031;43.416;23.232;2022-12-18T09:37:14;101521.16;;;9.99;57.17
33697;BME280;20031;43.416;23.232;2022-12-18T09:39:40;101526.00;;;10.04;57.40
33697;BME280;20031;43.416;23.232;2022-12-18T09:42:05;101528.84;;;10.01;57.20
33697;BME280;20031;43.416;23.232;2022-12-18T09:44:36;101532.00;;;9.93;56.73
33697;BME280;20031;43.416;23.232;2022-12-18T09:47:14;101533.88;;;9.91;56.98
33697;BME280;20031;43.416;23.232;2022-12-18T09:49:47;101526.72;;;9.95;57.12
33697;BME280;20031;43.416;23.232;2022-12-18T09:52:24;101524.13;;;10.06;56.46
33697;BME280;20031;43.416;23.232;2022-12-18T09:55:29;101528.72;;;10.13;55.16
33697;BME280;20031;43.416;23.232;2022-12-18T09:58:13;101521.00;;;10.22;55.00
33697;BME280;20031;43.416;23.232;2022-12-18T10:00:40;101522.31;;;10.28;54.39
33697;BME280;20031;43.416;23.232;2022-12-18T10:03:13;101525.63;;;10.30;55.02
33697;BME280;20031;43.416;23.232;2022-12-18T10:05:44;101525.75;;;10.18;54.17
33697;BME280;20031;43.416;23.232;2022-12-18T10:11:16;101534.66;;;10.04;55.35
33697;BME280;20031;43.416;23.232;2022-12-18T10:13:52;101535.81;;;10.11;55.42
33697;BME280;20031;43.416;23.232;2022-12-18T10:19:24;101539.72;;;10.17;55.17
33697;BME280;20031;43.416;23.232;2022-12-18T10:21:52;101543.97;;;10.28;55.07
33697;BME280;20031;43.416;23.232;2022-12-18T10:26:53;101534.00;;;10.44;54.16
33697;BME280;20031;43.416;23.232;2022-12-18T10:29:21;101549.38;;;10.47;53.69
33697;BME280;20031;43.416;23.232;2022-12-18T10:31:47;101549.25;;;10.49;53.58
33697;BME280;20031;43.416;23.232;2022-12-18T10:34:13;101549.72;;;10.54;53.20
33697;BME280;20031;43.416;23.232;2022-12-18T10:36:40;101549.00;;;10.52;53.22
33697;BME280;20031;43.416;23.232;2022-12-18T10:39:20;101552.13;;;10.46;53.51
33697;BME280;20031;43.416;23.232;2022-12-18T10:41:47;101549.38;;;10.47;53.15
33697;BME280;20031;43.416;23.232;2022-12-18T10:44:19;101541.69;;;10.57;53.69
33697;BME280;20031;43.416;23.232;2022-12-18T10:46:50;101544.84;;;10.60;53.24
33697;BME280;20031;43.416;23.232;2022-12-18T10:51:50;101536.22;;;10.60;52.49
33697;BME280;20031;43.416;23.232;2022-12-18T10:54:22;101537.41;;;10.56;51.71
33697;BME280;20031;43.416;23.232;2022-12-18T10:56:48;101544.31;;;10.46;50.76
33697;BME280;20031;43.416;23.232;2022-12-18T10:59:16;101545.34;;;10.43;50.13
33697;BME280;20031;43.416;23.232;2022-12-18T11:01:54;101541.31;;;10.50;50.34
33697;BME280;20031;43.416;23.232;2022-12-18T11:04:23;101539.91;;;10.57;49.03
33697;BME280;20031;43.416;23.232;2022-12-18T11:09:24;101532.78;;;10.59;44.54
33697;BME280;20031;43.416;23.232;2022-12-18T11:11:55;101535.50;;;10.58;44.01
33697;BME280;20031;43.416;23.232;2022-12-18T11:14:28;101527.56;;;10.59;44.38
33697;BME280;20031;43.416;23.232;2022-12-18T11:16:55;101526.50;;;10.62;44.61
33697;BME280;20031;43.416;23.232;2022-12-18T11:19:33;101526.75;;;10.59;43.80
33697;BME280;20031;43.416;23.232;2022-12-18T11:22:01;101535.19;;;10.51;44.01
33697;BME280;20031;43.416;23.232;2022-12-18T11:24:32;101540.28;;;10.42;44.25
33697;BME280;20031;43.416;23.232;2022-12-18T11:27:01;101537.44;;;10.34;44.70
33697;BME280;20031;43.416;23.232;2022-12-18T11:29:38;101539.09;;;10.35;44.80
33697;BME280;20031;43.416;23.232;2022-12-18T11:32:38;101536.97;;;10.40;45.23
33697;BME280;20031;43.416;23.232;2022-12-18T11:35:18;101538.16;;;10.36;45.17
33697;BME280;20031;43.416;23.232;2022-12-18T11:37:50;101543.63;;;10.33;44.93
33697;BME280;20031;43.416;23.232;2022-12-18T11:40:27;101541.00;;;10.33;45.07
33697;BME280;20031;43.416;23.232;2022-12-18T11:42:55;101543.13;;;10.28;44.51
33697;BME280;20031;43.416;23.232;2022-12-18T11:45:27;101541.72;;;10.24;44.32
33697;BME280;20031;43.416;23.232;2022-12-18T11:48:09;101538.16;;;10.25;44.90
33697;BME280;20031;43.416;23.232;2022-12-18T11:50:47;101547.53;;;10.27;44.74
33697;BME280;20031;43.416;23.232;2022-12-18T11:53:14;101550.50;;;10.23;44.32
33697;BME280;20031;43.416;23.232;2022-12-18T11:58:34;101549.78;;;10.10;45.32
33697;BME280;20031;43.416;23.232;2022-12-18T12:02:12;101555.69;;;10.01;46.06
33697;BME280;20031;43.416;23.232;2022-12-18T12:09:20;101549.63;;;9.79;46.51
33697;BME280;20031;43.416;23.232;2022-12-18T12:17:36;101557.88;;;9.73;47.35
33697;BME280;20031;43.416;23.232;2022-12-18T12:20:13;101551.84;;;9.72;47.25
33697;BME280;20031;43.416;23.232;2022-12-18T12:23:12;101556.47;;;9.69;47.05
33697;BME280;20031;43.416;23.232;2022-12-18T12:25:49;101553.63;;;9.61;45.95
33697;BME280;20031;43.416;23.232;2022-12-18T12:28:50;101560.44;;;9.51;45.65
33697;BME280;20031;43.416;23.232;2022-12-18T12:31:33;101557.97;;;9.50;45.49
33697;BME280;20031;43.416;23.232;2022-12-18T12:34:23;101561.84;;;9.44;46.01
33697;BME280;20031;43.416;23.232;2022-12-18T12:39:38;101568.84;;;9.44;46.70
33697;BME280;20031;43.416;23.232;2022-12-18T12:42:12;101566.34;;;9.42;47.02
33697;BME280;20031;43.416;23.232;2022-12-18T12:45:02;101566.81;;;9.36;46.63
33697;BME280;20031;43.416;23.232;2022-12-18T12:47:33;101568.31;;;9.28;46.60
33697;BME280;20031;43.416;23.232;2022-12-18T12:50:03;101571.16;;;9.25;46.87
33697;BME280;20031;43.416;23.232;2022-12-18T12:52:37;101575.84;;;9.20;47.22
33697;BME280;20031;43.416;23.232;2022-12-18T12:55:07;101574.63;;;9.13;46.77
33697;BME280;20031;43.416;23.232;2022-12-18T12:57:57;101573.06;;;9.11;47.78
33697;BME280;20031;43.416;23.232;2022-12-18T13:00:26;101581.31;;;9.05;47.38
33697;BME280;20031;43.416;23.232;2022-12-18T13:03:13;101584.16;;;9.02;47.86
33697;BME280;20031;43.416;23.232;2022-12-18T13:05:53;101588.75;;;8.98;47.98
33697;BME280;20031;43.416;23.232;2022-12-18T13:08:28;101587.75;;;8.88;47.68
33697;BME280;20031;43.416;23.232;2022-12-18T13:10:55;101598.50;;;8.84;48.70
33697;BME280;20031;43.416;23.232;2022-12-18T13:13:54;101595.47;;;8.77;48.44
33697;BME280;20031;43.416;23.232;2022-12-18T13:16:24;101609.13;;;8.68;48.81
33697;BME280;20031;43.416;23.232;2022-12-18T13:18:51;101610.41;;;8.63;48.68
33697;BME280;20031;43.416;23.232;2022-12-18T13:21:32;101606.97;;;8.63;49.46
33697;BME280;20031;43.416;23.232;2022-12-18T13:24:15;101609.66;;;8.61;50.36
33697;BME280;20031;43.416;23.232;2022-12-18T13:26:47;101618.84;;;8.54;49.99
33697;BME280;20031;43.416;23.232;2022-12-18T13:29:40;101621.44;;;8.54;50.17
33697;BME280;20031;43.416;23.232;2022-12-18T13:32:20;101619.13;;;8.50;50.17
33697;BME280;20031;43.416;23.232;2022-12-18T13:34:46;101621.22;;;8.45;50.03
33697;BME280;20031;43.416;23.232;2022-12-18T13:37:40;101626.75;;;8.40;50.37
33697;BME280;20031;43.416;23.232;2022-12-18T13:45:48;101641.69;;;8.37;51.08
33697;BME280;20031;43.416;23.232;2022-12-18T13:48:16;101645.34;;;8.34;51.11
33697;BME280;20031;43.416;23.232;2022-12-18T13:50:42;101646.16;;;8.35;51.00
33697;BME280;20031;43.416;23.232;2022-12-18T13:53:21;101647.63;;;8.26;51.39